sensor_id;sensor_type;location;lat;lon;timestamp;pressure;altitude;pressure_sealevel;temperature;humidity
62694;BME280;48759;52.544;13.418;2023-02-21T00:02:12;100555.19;;;9.25;100.00
62694;BME280;48759;52.544;13.418;2023-02-21T00:04:56;100540.03;;;9.29;100.00
62694;BME280;48759;52.544;13.418;2023-02-21T00:07:41;100539.91;;;8.81;100.00
62694;BME280;48759;52.544;13.418;2023-02-21T00:10:24;100536.88;;;8.97;100.00
62694;BME280;48759;52.544;13.418;2023-02-21T00:13:09;100540.72;;;8.54;100.00
62694;BME280;48759;52.544;13.418;2023-02-21T00:15:53;100536.13;;;9.16;100.00
62694;BME280;48759;52.544;13.418;2023-02-21T00:18:39;100534.78;;;8.71;100.00
62694;BME280;48759;52.544;13.418;2023-02-21T00:21:26;100531.72;;;8.88;100.00
62694;BME280;48759;52.544;13.418;2023-02-21T00:24:12;100539.13;;;9.21;100.00
62694;BME280;48759;52.544;13.418;2023-02-21T00:26:57;100542.94;;;8.65;100.00
62694;BME280;48759;52.544;13.418;2023-02-21T00:29:41;100535.97;;;9.25;100.00
62694;BME280;48759;52.544;13.418;2023-02-21T00:32:25;100521.44;;;8.68;100.00
62694;BME280;48759;52.544;13.418;2023-02-21T00:35:10;100518.91;;;8.67;100.00
62694;BME280;48759;52.544;13.418;2023-02-21T00:37:55;100530.50;;;8.90;100.00
62694;BME280;48759;52.544;13.418;2023-02-21T00:40:39;100518.00;;;8.88;100.00
62694;BME280;48759;52.544;13.418;2023-02-21T00:43:27;100510.78;;;8.80;100.00
62694;BME280;48759;52.544;13.418;2023-02-21T00:46:11;100523.09;;;9.25;100.00
62694;BME280;48759;52.544;13.418;2023-02-21T00:48:55;100517.72;;;9.10;100.00
62694;BME280;48759;52.544;13.418;2023-02-21T00:51:40;100521.22;;;8.91;100.00
62694;BME280;48759;52.544;13.418;2023-02-21T00:54:24;100510.84;;;8.93;100.00
62694;BME280;48759;52.544;13.418;2023-02-21T00:57:08;100509.38;;;8.91;100.00
62694;BME280;48759;52.544;13.418;2023-02-21T00:59:52;100498.13;;;9.13;100.00
62694;BME280;48759;52.544;13.418;2023-02-21T01:02:36;100518.63;;;8.83;100.00
62694;BME280;48759;52.544;13.418;2023-02-21T01:05:20;100507.16;;;9.42;100.00
62694;BME280;48759;52.544;13.418;2023-02-21T01:08:06;100495.13;;;9.15;100.00
62694;BME280;48759;52.544;13.418;2023-02-21T01:10:49;100498.56;;;9.23;100.00
62694;BME280;48759;52.544;13.418;2023-02-21T01:13:33;100497.31;;;9.26;100.00
62694;BME280;48759;52.544;13.418;2023-02-21T01:16:17;100504.75;;;8.91;100.00
62694;BME280;48759;52.544;13.418;2023-02-21T01:19:02;100487.84;;;9.29;100.00
62694;BME280;48759;52.544;13.418;2023-02-21T01:21:48;100474.81;;;9.03;100.00
62694;BME280;48759;52.544;13.418;2023-02-21T01:24:34;100485.84;;;8.75;100.00
62694;BME280;48759;52.544;13.418;2023-02-21T01:27:18;100480.75;;;9.47;100.00
62694;BME280;48759;52.544;13.418;2023-02-21T01:30:03;100475.91;;;9.08;100.00
62694;BME280;48759;52.544;13.418;2023-02-21T01:32:47;100474.22;;;8.73;100.00
62694;BME280;48759;52.544;13.418;2023-02-21T01:35:31;100483.28;;;9.08;100.00
62694;BME280;48759;52.544;13.418;2023-02-21T01:38:15;100469.38;;;8.75;100.00
62694;BME280;48759;52.544;13.418;2023-02-21T01:41:00;100466.69;;;8.81;100.00
62694;BME280;48759;52.544;13.418;2023-02-21T01:43:58;100470.41;;;9.43;100.00
62694;BME280;48759;52.544;13.418;2023-02-21T01:46:42;100462.69;;;9.25;100.00
62694;BME280;48759;52.544;13.418;2023-02-21T01:49:26;100467.91;;;8.79;100.00
62694;BME280;48759;52.544;13.418;2023-02-21T01:52:10;100473.16;;;8.74;100.00
62694;BME280;48759;52.544;13.418;2023-02-21T01:54:55;100481.56;;;9.00;100.00
62694;BME280;48759;52.544;13.418;2023-02-21T01:57:42;100469.00;;;9.26;100.00
62694;BME280;48759;52.544;13.418;2023-02-21T02:00:27;100463.75;;;9.31;100.00
62694;BME280;48759;52.544;13.418;2023-02-21T02:03:12;100469.28;;;8.96;100.00
62694;BME280;48759;52.544;13.418;2023-02-21T02:06:00;100450.44;;;8.87;100.00
62694;BME280;48759;52.544;13.418;2023-02-21T02:08:46;100464.63;;;8.90;100.00
62694;BME280;48759;52.544;13.418;2023-02-21T02:11:50;100464.56;;;9.25;100.00
62694;BME280;48759;52.544;13.418;2023-02-21T02:14:50;100465.59;;;9.17;100.00
62694;BME280;48759;52.544;13.418;2023-02-21T02:17:27;100472.41;;;9.28;100.00
62694;BME280;48759;52.544;13.418;2023-02-21T02:20:23;100464.28;;;9.06;100.00
62694;BME280;48759;52.544;13.418;2023-02-21T02:26:23;100462.94;;;9.30;100.00
62694;BME280;48759;52.544;13.418;2023-02-21T02:29:09;100456.28;;;9.11;100.00
62694;BME280;48759;52.544;13.418;2023-02-21T02:31:53;100461.59;;;9.19;100.00
62694;BME280;48759;52.544;13.418;2023-02-21T02:34:46;100442.03;;;9.36;100.00
62694;BME280;48759;52.544;13.418;2023-02-21T02:37:19;100447.00;;;9.12;100.00
62694;BME280;48759;52.544;13.418;2023-02-21T02:39:56;100431.59;;;8.77;100.00
62694;BME280;48759;52.544;13.418;2023-02-21T02:42:36;100454.16;;;9.54;100.00
62694;BME280;48759;52.544;13.418;2023-02-21T02:45:10;100435.88;;;9.27;100.00
62694;BME280;48759;52.544;13.418;2023-02-21T02:47:42;100423.75;;;9.15;100.00
62694;BME280;48759;52.544;13.418;2023-02-21T02:50:12;100446.00;;;9.27;100.00
62694;BME280;48759;52.544;13.418;2023-02-21T02:52:48;100445.69;;;9.43;100.00
62694;BME280;48759;52.544;13.418;2023-02-21T02:55:35;100457.31;;;9.45;100.00
62694;BME280;48759;52.544;13.418;2023-02-21T02:58:04;100441.16;;;9.29;100.00
62694;BME280;48759;52.544;13.418;2023-02-21T03:00:32;100431.22;;;9.28;100.00
62694;BME280;48759;52.544;13.418;2023-02-21T03:03:11;100434.50;;;9.51;100.00
62694;BME280;48759;52.544;13.418;2023-02-21T03:05:50;100444.56;;;9.37;100.00
62694;BME280;48759;52.544;13.418;2023-02-21T03:08:26;100438.78;;;9.73;100.00
62694;BME280;48759;52.544;13.418;2023-02-21T03:11:00;100440.41;;;9.48;100.00
62694;BME280;48759;52.544;13.418;2023-02-21T03:13:34;100439.03;;;9.31;100.00
62694;BME280;48759;52.544;13.418;2023-02-21T03:16:07;100443.00;;;9.69;100.00
62694;BME280;48759;52.544;13.418;2023-02-21T03:18:39;100435.34;;;9.45;100.00
62694;BME280;48759;52.544;13.418;2023-02-21T03:21:13;100438.75;;;9.12;100.00
62694;BME280;48759;52.544;13.418;2023-02-21T03:23:44;100444.34;;;9.93;100.00
62694;BME280;48759;52.544;13.418;2023-02-21T03:26:13;100440.28;;;9.21;100.00
62694;BME280;48759;52.544;13.418;2023-02-21T03:28:40;100443.28;;;9.33;100.00
62694;BME280;48759;52.544;13.418;2023-02-21T03:31:09;100434.56;;;9.77;100.00
62694;BME280;48759;52.544;13.418;2023-02-21T03:33:38;100447.69;;;9.82;100.00
62694;BME280;48759;52.544;13.418;2023-02-21T03:36:06;100460.38;;;9.29;100.00
62694;BME280;48759;52.544;13.418;2023-02-21T03:38:36;100442.59;;;9.72;100.00
62694;BME280;48759;52.544;13.418;2023-02-21T03:41:03;100443.13;;;9.41;100.00
62694;BME280;48759;52.544;13.418;2023-02-21T03:43:31;100441.88;;;9.44;100.00
62694;BME280;48759;52.544;13.418;2023-02-21T03:45:57;100453.34;;;9.61;100.00
62694;BME280;48759;52.544;13.418;2023-02-21T03:48:24;100443.81;;;9.63;100.00
62694;BME280;48759;52.544;13.418;2023-02-21T03:50:50;100457.16;;;9.66;100.00
62694;BME280;48759;52.544;13.418;2023-02-21T03:53:17;100477.44;;;9.24;100.00
62694;BME280;48759;52.544;13.418;2023-02-21T03:55:45;100457.88;;;8.99;100.00
62694;BME280;48759;52.544;13.418;2023-02-21T03:58:12;100458.66;;;9.75;100.00
62694;BME280;48759;52.544;13.418;2023-02-21T04:00:38;100444.88;;;9.62;100.00
62694;BME280;48759;52.544;13.418;2023-02-21T04:03:05;100455.28;;;9.73;100.00
62694;BME280;48759;52.544;13.418;2023-02-21T04:05:32;100465.09;;;10.15;100.00
62694;BME280;48759;52.544;13.418;2023-02-21T04:07:59;100468.88;;;10.14;100.00
62694;BME280;48759;52.544;13.418;2023-02-21T04:10:26;100471.44;;;10.29;100.00
62694;BME280;48759;52.544;13.418;2023-02-21T04:12:56;100473.06;;;9.90;100.00
62694;BME280;48759;52.544;13.418;2023-02-21T04:15:23;100474.78;;;9.98;100.00
62694;BME280;48759;52.544;13.418;2023-02-21T04:17:49;100482.00;;;10.19;100.00
62694;BME280;48759;52.544;13.418;2023-02-21T04:20:16;100474.09;;;9.76;100.00
62694;BME280;48759;52.544;13.418;2023-02-21T04:22:43;100474.38;;;10.08;100.00
62694;BME280;48759;52.544;13.418;2023-02-21T04:25:10;100484.97;;;10.37;100.00
62694;BME280;48759;52.544;13.418;2023-02-21T04:27:36;100491.28;;;10.18;100.00
62694;BME280;48759;52.544;13.418;2023-02-21T04:30:05;100479.84;;;9.94;100.00
62694;BME280;48759;52.544;13.418;2023-02-21T04:32:32;100488.28;;;9.86;100.00
62694;BME280;48759;52.544;13.418;2023-02-21T04:34:58;100491.47;;;9.90;100.00
62694;BME280;48759;52.544;13.418;2023-02-21T04:37:25;100480.47;;;9.90;100.00
62694;BME280;48759;52.544;13.418;2023-02-21T04:39:52;100495.13;;;10.17;100.00
62694;BME280;48759;52.544;13.418;2023-02-21T04:42:18;100482.47;;;9.55;100.00
62694;BME280;48759;52.544;13.418;2023-02-21T04:44:45;100483.53;;;10.54;100.00
62694;BME280;48759;52.544;13.418;2023-02-21T04:47:13;100491.53;;;10.23;100.00
62694;BME280;48759;52.544;13.418;2023-02-21T04:49:39;100481.63;;;10.61;100.00
62694;BME280;48759;52.544;13.418;2023-02-21T04:52:06;100485.38;;;10.41;100.00
62694;BME280;48759;52.544;13.418;2023-02-21T04:54:33;100471.41;;;10.82;100.00
62694;BME280;48759;52.544;13.418;2023-02-21T04:56:59;100474.81;;;10.77;100.00
62694;BME280;48759;52.544;13.418;2023-02-21T04:59:26;100494.28;;;10.16;100.00
62694;BME280;48759;52.544;13.418;2023-02-21T05:01:53;100493.84;;;10.52;100.00
62694;BME280;48759;52.544;13.418;2023-02-21T05:04:23;100495.97;;;10.83;100.00
62694;BME280;48759;52.544;13.418;2023-02-21T05:06:49;100493.88;;;10.79;100.00
62694;BME280;48759;52.544;13.418;2023-02-21T05:09:16;100488.34;;;10.52;100.00
62694;BME280;48759;52.544;13.418;2023-02-21T05:11:42;100486.25;;;10.48;100.00
62694;BME280;48759;52.544;13.418;2023-02-21T05:14:09;100485.41;;;10.60;100.00
62694;BME280;48759;52.544;13.418;2023-02-21T05:16:36;100505.69;;;10.07;100.00
62694;BME280;48759;52.544;13.418;2023-02-21T05:19:02;100494.72;;;10.59;100.00
62694;BME280;48759;52.544;13.418;2023-02-21T05:21:33;100495.34;;;10.35;100.00
62694;BME280;48759;52.544;13.418;2023-02-21T05:24:02;100487.09;;;10.28;100.00
62694;BME280;48759;52.544;13.418;2023-02-21T05:26:32;100489.66;;;10.69;100.00
62694;BME280;48759;52.544;13.418;2023-02-21T05:28:59;100492.44;;;11.40;100.00
62694;BME280;48759;52.544;13.418;2023-02-21T05:31:27;100479.72;;;10.55;100.00
62694;BME280;48759;52.544;13.418;2023-02-21T05:33:53;100499.81;;;10.62;100.00
62694;BME280;48759;52.544;13.418;2023-02-21T05:36:20;100500.66;;;10.69;100.00
62694;BME280;48759;52.544;13.418;2023-02-21T05:38:52;100504.47;;;10.75;100.00
62694;BME280;48759;52.544;13.418;2023-02-21T05:41:19;100496.66;;;10.72;100.00
62694;BME280;48759;52.544;13.418;2023-02-21T05:43:47;100499.38;;;10.65;100.00
62694;BME280;48759;52.544;13.418;2023-02-21T05:46:19;100509.75;;;10.77;100.00
62694;BME280;48759;52.544;13.418;2023-02-21T05:48:47;100502.31;;;10.38;100.00
62694;BME280;48759;52.544;13.418;2023-02-21T05:51:14;100509.09;;;10.35;100.00
62694;BME280;48759;52.544;13.418;2023-02-21T05:53:41;100509.72;;;11.09;100.00
62694;BME280;48759;52.544;13.418;2023-02-21T05:56:09;100511.75;;;11.27;100.00
62694;BME280;48759;52.544;13.418;2023-02-21T05:58:36;100525.19;;;10.91;100.00
62694;BME280;48759;52.544;13.418;2023-02-21T06:01:04;100515.84;;;11.18;100.00
62694;BME280;48759;52.544;13.418;2023-02-21T06:03:31;100528.50;;;11.32;100.00
62694;BME280;48759;52.544;13.418;2023-02-21T06:05:58;100525.81;;;11.06;100.00
62694;BME280;48759;52.544;13.418;2023-02-21T06:08:25;100551.03;;;10.90;100.00
62694;BME280;48759;52.544;13.418;2023-02-21T06:10:52;100540.91;;;10.70;100.00
62694;BME280;48759;52.544;13.418;2023-02-21T06:13:20;100545.44;;;12.32;100.00
62694;BME280;48759;52.544;13.418;2023-02-21T06:15:46;100564.91;;;11.47;100.00
62694;BME280;48759;52.544;13.418;2023-02-21T06:24:57;100553.13;;;11.14;100.00
62694;BME280;48759;52.544;13.418;2023-02-21T06:27:23;100573.22;;;10.42;100.00
62694;BME280;48759;52.544;13.418;2023-02-21T06:29:51;100568.00;;;10.87;100.00
62694;BME280;48759;52.544;13.418;2023-02-21T06:32:18;100581.97;;;10.79;100.00
62694;BME280;48759;52.544;13.418;2023-02-21T06:34:45;100584.69;;;11.05;100.00
62694;BME280;48759;52.544;13.418;2023-02-21T06:37:11;100573.47;;;11.06;100.00
62694;BME280;48759;52.544;13.418;2023-02-21T06:39:38;100573.94;;;12.25;100.00
62694;BME280;48759;52.544;13.418;2023-02-21T06:42:05;100587.38;;;11.51;100.00
62694;BME280;48759;52.544;13.418;2023-02-21T06:44:32;100581.28;;;11.29;100.00
62694;BME280;48759;52.544;13.418;2023-02-21T06:47:00;100588.00;;;12.17;100.00
62694;BME280;48759;52.544;13.418;2023-02-21T06:49:26;100594.22;;;11.22;100.00
62694;BME280;48759;52.544;13.418;2023-02-21T06:51:53;100596.34;;;11.33;100.00
62694;BME280;48759;52.544;13.418;2023-02-21T06:54:20;100596.25;;;11.60;100.00
62694;BME280;48759;52.544;13.418;2023-02-21T06:56:46;100597.63;;;10.98;100.00
62694;BME280;48759;52.544;13.418;2023-02-21T06:59:13;100600.75;;;9.81;100.00
62694;BME280;48759;52.544;13.418;2023-02-21T07:01:40;100608.22;;;9.53;100.00
62694;BME280;48759;52.544;13.418;2023-02-21T07:04:08;100607.72;;;10.51;100.00
62694;BME280;48759;52.544;13.418;2023-02-21T07:06:34;100617.00;;;10.24;100.00
62694;BME280;48759;52.544;13.418;2023-02-21T07:09:01;100624.03;;;9.85;100.00
62694;BME280;48759;52.544;13.418;2023-02-21T07:11:33;100623.97;;;10.33;100.00
62694;BME280;48759;52.544;13.418;2023-02-21T07:14:00;100623.16;;;10.39;100.00
62694;BME280;48759;52.544;13.418;2023-02-21T07:16:27;100633.25;;;9.71;100.00
62694;BME280;48759;52.544;13.418;2023-02-21T07:19:00;100643.34;;;9.98;100.00
62694;BME280;48759;52.544;13.418;2023-02-21T07:21:28;100643.28;;;10.46;100.00
62694;BME280;48759;52.544;13.418;2023-02-21T07:24:09;100648.81;;;12.36;100.00
62694;BME280;48759;52.544;13.418;2023-02-21T07:26:36;100657.69;;;11.93;100.00
62694;BME280;48759;52.544;13.418;2023-02-21T07:29:04;100658.19;;;12.73;100.00
62694;BME280;48759;52.544;13.418;2023-02-21T07:31:31;100675.22;;;12.18;100.00
62694;BME280;48759;52.544;13.418;2023-02-21T07:33:58;100669.22;;;11.64;100.00
62694;BME280;48759;52.544;13.418;2023-02-21T07:36:25;100662.22;;;11.61;100.00
62694;BME280;48759;52.544;13.418;2023-02-21T07:38:53;100671.31;;;10.83;100.00
62694;BME280;48759;52.544;13.418;2023-02-21T07:41:19;100663.50;;;11.39;100.00
62694;BME280;48759;52.544;13.418;2023-02-21T07:43:46;100659.47;;;11.55;100.00
62694;BME280;48759;52.544;13.418;2023-02-21T07:46:15;100666.69;;;12.71;100.00
62694;BME280;48759;52.544;13.418;2023-02-21T07:48:42;100660.25;;;12.84;100.00
62694;BME280;48759;52.544;13.418;2023-02-21T07:51:09;100662.22;;;12.25;100.00
62694;BME280;48759;52.544;13.418;2023-02-21T07:53:35;100654.72;;;12.84;100.00
62694;BME280;48759;52.544;13.418;2023-02-21T07:56:04;100674.06;;;11.75;100.00
62694;BME280;48759;52.544;13.418;2023-02-21T07:58:31;100702.19;;;10.65;100.00
62694;BME280;48759;52.544;13.418;2023-02-21T08:01:01;100670.25;;;9.41;100.00
62694;BME280;48759;52.544;13.418;2023-02-21T08:03:28;100680.56;;;8.68;100.00
62694;BME280;48759;52.544;13.418;2023-02-21T08:05:55;100672.28;;;8.83;100.00
62694;BME280;48759;52.544;13.418;2023-02-21T08:08:21;100687.06;;;8.82;100.00
62694;BME280;48759;52.544;13.418;2023-02-21T08:10:48;100701.16;;;8.79;100.00
62694;BME280;48759;52.544;13.418;2023-02-21T08:13:16;100697.78;;;8.98;100.00
62694;BME280;48759;52.544;13.418;2023-02-21T08:15:43;100693.28;;;9.18;100.00
62694;BME280;48759;52.544;13.418;2023-02-21T08:18:14;100700.16;;;9.29;100.00
62694;BME280;48759;52.544;13.418;2023-02-21T08:20:45;100695.00;;;9.19;100.00
62694;BME280;48759;52.544;13.418;2023-02-21T08:23:11;100687.00;;;9.25;100.00
62694;BME280;48759;52.544;13.418;2023-02-21T08:25:38;100708.09;;;8.96;100.00
62694;BME280;48759;52.544;13.418;2023-02-21T08:28:05;100688.97;;;9.09;100.00
62694;BME280;48759;52.544;13.418;2023-02-21T08:30:33;100700.50;;;8.98;100.00
62694;BME280;48759;52.544;13.418;2023-02-21T08:32:59;100701.56;;;8.97;100.00
62694;BME280;48759;52.544;13.418;2023-02-21T08:35:26;100709.88;;;9.32;100.00
62694;BME280;48759;52.544;13.418;2023-02-21T08:37:53;100738.28;;;8.75;100.00
62694;BME280;48759;52.544;13.418;2023-02-21T08:40:21;100712.13;;;9.00;100.00
62694;BME280;48759;52.544;13.418;2023-02-21T08:42:50;100717.75;;;9.13;100.00
62694;BME280;48759;52.544;13.418;2023-02-21T08:45:19;100722.84;;;9.16;100.00
62694;BME280;48759;52.544;13.418;2023-02-21T08:47:48;100725.47;;;8.82;100.00
62694;BME280;48759;52.544;13.418;2023-02-21T08:50:16;100720.09;;;8.95;100.00
62694;BME280;48759;52.544;13.418;2023-02-21T08:52:44;100734.66;;;9.17;100.00
62694;BME280;48759;52.544;13.418;2023-02-21T08:55:11;100735.00;;;9.07;100.00
62694;BME280;48759;52.544;13.418;2023-02-21T08:57:38;100718.91;;;9.26;100.00
62694;BME280;48759;52.544;13.418;2023-02-21T09:00:06;100743.09;;;9.15;100.00
62694;BME280;48759;52.544;13.418;2023-02-21T09:02:35;100737.50;;;9.02;100.00
62694;BME280;48759;52.544;13.418;2023-02-21T09:05:06;100712.91;;;8.94;100.00
62694;BME280;48759;52.544;13.418;2023-02-21T09:07:33;100737.03;;;9.20;100.00
62694;BME280;48759;52.544;13.418;2023-02-21T09:10:00;100735.47;;;9.53;100.00
62694;BME280;48759;52.544;13.418;2023-02-21T09:12:26;100722.66;;;9.67;100.00
62694;BME280;48759;52.544;13.418;2023-02-21T09:14:53;100727.09;;;9.68;100.00
62694;BME280;48759;52.544;13.418;2023-02-21T09:17:19;100738.47;;;9.65;100.00
62694;BME280;48759;52.544;13.418;2023-02-21T09:19:46;100747.22;;;9.75;100.00
62694;BME280;48759;52.544;13.418;2023-02-21T09:22:14;100739.00;;;9.75;100.00
62694;BME280;48759;52.544;13.418;2023-02-21T09:24:41;100751.22;;;9.45;100.00
62694;BME280;48759;52.544;13.418;2023-02-21T09:27:07;100764.28;;;9.92;100.00
62694;BME280;48759;52.544;13.418;2023-02-21T09:29:35;100745.28;;;9.69;100.00
62694;BME280;48759;52.544;13.418;2023-02-21T09:32:02;100749.31;;;9.73;100.00
62694;BME280;48759;52.544;13.418;2023-02-21T09:34:29;100752.25;;;10.00;100.00
62694;BME280;48759;52.544;13.418;2023-02-21T09:36:56;100756.47;;;10.02;100.00
62694;BME280;48759;52.544;13.418;2023-02-21T09:39:25;100757.13;;;9.70;100.00
62694;BME280;48759;52.544;13.418;2023-02-21T09:41:52;100756.44;;;9.95;100.00
62694;BME280;48759;52.544;13.418;2023-02-21T09:44:24;100755.16;;;9.91;100.00
62694;BME280;48759;52.544;13.418;2023-02-21T09:46:54;100777.25;;;9.49;100.00
62694;BME280;48759;52.544;13.418;2023-02-21T09:49:24;100768.38;;;10.09;100.00
62694;BME280;48759;52.544;13.418;2023-02-21T09:51:52;100774.59;;;10.65;100.00
62694;BME280;48759;52.544;13.418;2023-02-21T09:54:25;100785.59;;;10.59;100.00
62694;BME280;48759;52.544;13.418;2023-02-21T09:56:55;100772.94;;;9.95;100.00
62694;BME280;48759;52.544;13.418;2023-02-21T09:59:23;100775.53;;;10.79;100.00
62694;BME280;48759;52.544;13.418;2023-02-21T10:02:08;100777.25;;;10.87;100.00
62694;BME280;48759;52.544;13.418;2023-02-21T10:04:55;100772.47;;;10.54;100.00
62694;BME280;48759;52.544;13.418;2023-02-21T10:07:33;100787.63;;;10.44;100.00
62694;BME280;48759;52.544;13.418;2023-02-21T10:10:09;100783.47;;;10.54;100.00
62694;BME280;48759;52.544;13.418;2023-02-21T10:12:43;100776.25;;;10.53;100.00
62694;BME280;48759;52.544;13.418;2023-02-21T10:15:24;100787.06;;;11.22;100.00
62694;BME280;48759;52.544;13.418;2023-02-21T10:18:04;100785.25;;;10.82;100.00
62694;BME280;48759;52.544;13.418;2023-02-21T10:20:37;100783.50;;;10.67;100.00
62694;BME280;48759;52.544;13.418;2023-02-21T10:23:13;100788.28;;;10.52;100.00
62694;BME280;48759;52.544;13.418;2023-02-21T10:25:44;100826.28;;;10.35;100.00
62694;BME280;48759;52.544;13.418;2023-02-21T10:28:16;100812.91;;;10.26;100.00
62694;BME280;48759;52.544;13.418;2023-02-21T10:30:44;100807.66;;;11.52;100.00
62694;BME280;48759;52.544;13.418;2023-02-21T10:33:12;100805.50;;;10.54;100.00
62694;BME280;48759;52.544;13.418;2023-02-21T10:35:39;100811.19;;;10.25;100.00
62694;BME280;48759;52.544;13.418;2023-02-21T10:38:07;100810.88;;;10.41;100.00
62694;BME280;48759;52.544;13.418;2023-02-21T10:40:37;100821.81;;;10.56;100.00
62694;BME280;48759;52.544;13.418;2023-02-21T10:43:10;100798.31;;;10.60;100.00
62694;BME280;48759;52.544;13.418;2023-02-21T10:45:40;100792.78;;;10.53;100.00
62694;BME280;48759;52.544;13.418;2023-02-21T10:48:11;100801.50;;;10.29;100.00
62694;BME280;48759;52.544;13.418;2023-02-21T10:50:44;100823.34;;;10.37;100.00
62694;BME280;48759;52.544;13.418;2023-02-21T10:53:26;100826.03;;;10.24;100.00
62694;BME280;48759;52.544;13.418;2023-02-21T10:56:19;100810.84;;;10.34;100.00
62694;BME280;48759;52.544;13.418;2023-02-21T10:58:50;100802.97;;;10.66;100.00
62694;BME280;48759;52.544;13.418;2023-02-21T11:01:19;100811.56;;;10.91;100.00
62694;BME280;48759;52.544;13.418;2023-02-21T11:03:48;100814.44;;;10.69;100.00
62694;BME280;48759;52.544;13.418;2023-02-21T11:06:27;100802.13;;;11.39;100.00
62694;BME280;48759;52.544;13.418;2023-02-21T11:08:58;100819.47;;;10.59;100.00
62694;BME280;48759;52.544;13.418;2023-02-21T11:11:33;100806.28;;;10.48;100.00
62694;BME280;48759;52.544;13.418;2023-02-21T11:14:20;100817.53;;;11.07;100.00
62694;BME280;48759;52.544;13.418;2023-02-21T11:17:06;100794.56;;;9.98;100.00
62694;BME280;48759;52.544;13.418;2023-02-21T11:19:45;100820.25;;;10.19;100.00
62694;BME280;48759;52.544;13.418;2023-02-21T11:22:12;100800.66;;;10.63;100.00
62694;BME280;48759;52.544;13.418;2023-02-21T11:24:51;100798.13;;;11.48;100.00
62694;BME280;48759;52.544;13.418;2023-02-21T11:27:19;100796.41;;;11.34;100.00
62694;BME280;48759;52.544;13.418;2023-02-21T11:29:49;100794.19;;;10.97;100.00
62694;BME280;48759;52.544;13.418;2023-02-21T11:32:26;100800.72;;;10.83;100.00
62694;BME280;48759;52.544;13.418;2023-02-21T11:35:21;100813.44;;;10.84;100.00
62694;BME280;48759;52.544;13.418;2023-02-21T11:37:52;100792.41;;;10.63;100.00
62694;BME280;48759;52.544;13.418;2023-02-21T11:40:32;100807.53;;;10.87;100.00
62694;BME280;48759;52.544;13.418;2023-02-21T11:43:27;100806.53;;;11.14;100.00
62694;BME280;48759;52.544;13.418;2023-02-21T11:46:02;100792.19;;;11.58;100.00
62694;BME280;48759;52.544;13.418;2023-02-21T11:48:33;100824.38;;;11.38;97.45
62694;BME280;48759;52.544;13.418;2023-02-21T11:51:04;100801.94;;;12.00;91.62
62694;BME280;48759;52.544;13.418;2023-02-21T11:53:36;100808.13;;;11.63;88.38
62694;BME280;48759;52.544;13.418;2023-02-21T11:56:10;100805.75;;;11.60;88.49
62694;BME280;48759;52.544;13.418;2023-02-21T11:58:44;100798.53;;;11.26;85.15
62694;BME280;48759;52.544;13.418;2023-02-21T12:01:18;100811.00;;;11.22;85.78
62694;BME280;48759;52.544;13.418;2023-02-21T12:04:00;100796.72;;;10.92;87.94
62694;BME280;48759;52.544;13.418;2023-02-21T12:06:37;100818.66;;;11.26;83.49
62694;BME280;48759;52.544;13.418;2023-02-21T12:09:11;100791.06;;;11.13;83.42
62694;BME280;48759;52.544;13.418;2023-02-21T12:11:45;100805.75;;;11.53;78.92
62694;BME280;48759;52.544;13.418;2023-02-21T12:14:47;100810.22;;;10.73;87.41
62694;BME280;48759;52.544;13.418;2023-02-21T12:20:17;100831.97;;;11.16;82.24
62694;BME280;48759;52.544;13.418;2023-02-21T12:23:00;100819.47;;;10.59;86.52
62694;BME280;48759;52.544;13.418;2023-02-21T12:25:34;100832.72;;;10.84;88.09
62694;BME280;48759;52.544;13.418;2023-02-21T12:28:12;100818.97;;;10.97;87.08
62694;BME280;48759;52.544;13.418;2023-02-21T12:30:58;100818.38;;;11.08;85.79
62694;BME280;48759;52.544;13.418;2023-02-21T12:33:40;100807.44;;;11.41;81.03
62694;BME280;48759;52.544;13.418;2023-02-21T12:36:21;100805.09;;;11.31;80.59
62694;BME280;48759;52.544;13.418;2023-02-21T12:39:00;100811.25;;;10.66;83.84
62694;BME280;48759;52.544;13.418;2023-02-21T12:44:26;100803.84;;;9.97;90.77
62694;BME280;48759;52.544;13.418;2023-02-21T12:47:01;100806.94;;;11.04;84.73
62694;BME280;48759;52.544;13.418;2023-02-21T12:49:42;100807.41;;;10.26;84.27
62694;BME280;48759;52.544;13.418;2023-02-21T12:52:14;100812.53;;;10.35;85.58
62694;BME280;48759;52.544;13.418;2023-02-21T12:54:44;100818.34;;;10.13;85.60
62694;BME280;48759;52.544;13.418;2023-02-21T12:57:15;100820.81;;;10.77;82.50
62694;BME280;48759;52.544;13.418;2023-02-21T12:59:53;100813.25;;;10.85;79.37
62694;BME280;48759;52.544;13.418;2023-02-21T13:02:32;100807.75;;;10.98;79.70
62694;BME280;48759;52.544;13.418;2023-02-21T13:05:07;100805.66;;;11.07;77.98
62694;BME280;48759;52.544;13.418;2023-02-21T13:07:42;100823.34;;;10.71;77.06
62694;BME280;48759;52.544;13.418;2023-02-21T13:10:15;100779.22;;;11.19;74.92
62694;BME280;48759;52.544;13.418;2023-02-21T13:12:46;100807.44;;;11.41;72.67
62694;BME280;48759;52.544;13.418;2023-02-21T13:15:19;100802.44;;;10.49;73.78
62694;BME280;48759;52.544;13.418;2023-02-21T13:17:56;100807.44;;;10.67;72.24
62694;BME280;48759;52.544;13.418;2023-02-21T13:20:29;100803.47;;;10.01;78.74
62694;BME280;48759;52.544;13.418;2023-02-21T13:23:17;100810.16;;;10.26;77.43